createdAt,value
2018-11-13T00:00:13.519Z,101348.81
2018-11-13T00:02:42.442Z,101347.98
2018-11-13T00:05:11.368Z,101352.70
2018-11-13T00:07:39.994Z,101344.95
2018-11-13T00:10:10.254Z,101335.95
2018-11-13T00:12:38.914Z,101338.97
2018-11-13T00:15:07.756Z,101339.39
2018-11-13T00:17:36.900Z,101332.07
2018-11-13T00:20:07.012Z,101335.95
2018-11-13T00:22:35.660Z,101337.25
2018-11-13T00:25:04.352Z,101331.67
2018-11-13T00:27:33.143Z,101325.64
2018-11-13T00:30:01.869Z,101329.97
2018-11-13T00:32:30.462Z,101329.98
2018-11-13T00:34:59.010Z,101334.71
2018-11-13T00:37:27.777Z,101335.59
2018-11-13T00:39:56.425Z,101339.02
2018-11-13T00:42:25.204Z,101335.16
2018-11-13T00:44:54.032Z,101329.13
2018-11-13T00:47:22.795Z,101335.61
2018-11-13T00:49:51.381Z,101330.87
2018-11-13T00:52:20.043Z,101333.47
2018-11-13T00:54:48.625Z,101339.92
2018-11-13T00:57:17.226Z,101334.32
2018-11-13T00:59:45.934Z,101342.48
2018-11-13T01:02:14.478Z,101343.33
2018-11-13T01:04:43.402Z,101334.73
2018-11-13T01:07:12.947Z,101339.05
2018-11-13T01:09:41.499Z,101339.47
2018-11-13T01:12:10.172Z,101333.05
2018-11-13T01:14:38.841Z,101334.77
2018-11-13T01:17:07.532Z,101347.66
2018-11-13T01:19:36.100Z,101361.00
2018-11-13T01:22:04.935Z,101370.88
2018-11-13T01:24:33.640Z,101377.75
2018-11-13T01:27:02.192Z,101382.05
2018-11-13T01:29:30.841Z,101390.20
2018-11-13T01:31:59.499Z,101390.64
2018-11-13T01:34:28.232Z,101383.77
2018-11-13T01:36:56.991Z,101379.88
2018-11-13T01:39:25.525Z,101376.04
2018-11-13T01:41:54.161Z,101379.45
2018-11-13T01:44:22.791Z,101377.75
2018-11-13T01:46:51.532Z,101384.66
2018-11-13T01:49:20.151Z,101390.22
2018-11-13T01:51:48.760Z,101401.38
2018-11-13T01:54:17.308Z,101403.13
2018-11-13T01:56:46.001Z,101393.21
2018-11-13T01:59:14.932Z,101399.23
2018-11-13T02:01:43.608Z,101388.48
2018-11-13T02:04:12.278Z,101387.66
2018-11-13T02:06:40.989Z,101383.80
2018-11-13T02:09:10.481Z,101385.89
2018-11-13T02:11:39.112Z,101385.92
2018-11-13T02:14:07.624Z,101377.31
2018-11-13T02:16:36.348Z,101373.03
2018-11-13T02:19:05.079Z,101373.43
2018-11-13T02:21:33.718Z,101356.25
2018-11-13T02:24:02.556Z,101345.95
2018-11-13T02:26:31.104Z,101342.92
2018-11-13T02:28:59.810Z,101341.66
2018-11-13T02:31:28.435Z,101348.95
2018-11-13T02:33:57.100Z,101339.92
2018-11-13T02:36:26.860Z,101342.51
2018-11-13T02:38:55.500Z,101336.05
2018-11-13T02:41:24.124Z,101335.63
2018-11-13T02:43:52.869Z,101331.34
2018-11-13T02:46:21.644Z,101326.17
2018-11-13T02:48:50.212Z,101312.84
2018-11-13T02:51:18.863Z,101306.42
2018-11-13T02:53:47.554Z,101309.44
2018-11-13T02:56:16.155Z,101304.69
2018-11-13T02:58:44.815Z,101312.44
2018-11-13T03:01:13.534Z,101329.20
2018-11-13T03:03:42.212Z,101328.35
2018-11-13T03:06:10.844Z,101328.33
2018-11-13T03:08:39.433Z,101326.61
2018-11-13T03:11:08.031Z,101326.62
2018-11-13T03:13:36.927Z,101343.35
2018-11-13T03:16:06.135Z,101349.36
2018-11-13T03:18:34.817Z,101357.95
2018-11-13T03:21:03.550Z,101367.83
2018-11-13T03:23:32.096Z,101357.95
2018-11-13T03:26:00.763Z,101353.23
2018-11-13T03:28:29.375Z,101358.83
2018-11-13T03:30:57.961Z,101361.41
2018-11-13T03:33:26.612Z,101355.80
2018-11-13T03:35:55.150Z,101342.91
2018-11-13T03:38:23.777Z,101344.23
2018-11-13T03:40:52.548Z,101353.68
2018-11-13T03:43:21.311Z,101365.69
2018-11-13T03:45:50.096Z,101370.42
2018-11-13T03:48:18.782Z,101370.88
2018-11-13T03:50:47.410Z,101366.98
2018-11-13T03:53:16.001Z,101371.72
2018-11-13T03:55:44.626Z,101367.43
2018-11-13T03:58:13.409Z,101364.41
2018-11-13T04:00:42.129Z,101366.14
2018-11-13T04:03:10.754Z,101363.11
2018-11-13T04:05:39.275Z,101365.26
2018-11-13T04:08:07.850Z,101356.66
2018-11-13T04:10:36.549Z,101354.12
2018-11-13T04:13:05.391Z,101358.00
2018-11-13T04:15:34.033Z,101356.69
2018-11-13T04:18:02.572Z,101354.55
2018-11-13T04:20:31.151Z,101364.41
2018-11-13T04:23:00.065Z,101369.57
2018-11-13T04:25:28.816Z,101364.84
2018-11-13T04:27:57.555Z,101373.45
2018-11-13T04:30:26.250Z,101377.31
2018-11-13T04:32:54.804Z,101377.33
2018-11-13T04:35:23.470Z,101380.74
2018-11-13T04:37:52.023Z,101373.86
2018-11-13T04:40:21.557Z,101369.98
2018-11-13T04:42:51.511Z,101378.62
2018-11-13T04:45:21.310Z,101381.63
2018-11-13T04:47:50.446Z,101388.07
2018-11-13T04:50:20.108Z,101385.93
2018-11-13T04:52:48.804Z,101391.95
2018-11-13T04:55:18.645Z,101404.41
2018-11-13T04:57:48.260Z,101422.05
2018-11-13T05:00:19.285Z,101434.08
2018-11-13T05:02:48.128Z,101433.66
2018-11-13T05:05:17.839Z,101423.31
2018-11-13T05:07:47.793Z,101425.91
2018-11-13T05:10:16.779Z,101416.02
2018-11-13T05:12:46.211Z,101414.30
2018-11-13T05:15:14.949Z,101406.55
2018-11-13T05:17:44.423Z,101404.84
2018-11-13T05:20:14.095Z,101409.58
2018-11-13T05:22:42.729Z,101397.95
2018-11-13T05:25:13.488Z,101388.48
2018-11-13T05:27:42.424Z,101387.65
2018-11-13T05:30:13.505Z,101385.48
2018-11-13T05:32:42.023Z,101381.20
2018-11-13T05:35:12.983Z,101390.66
2018-11-13T05:37:42.776Z,101385.91
2018-11-13T05:40:16.540Z,101379.89
2018-11-13T05:42:45.285Z,101373.45
2018-11-13T05:45:15.007Z,101362.29
2018-11-13T05:47:43.708Z,101364.00
2018-11-13T05:50:13.596Z,101376.05
2018-11-13T05:52:42.909Z,101378.63
2018-11-13T05:55:11.995Z,101395.37
2018-11-13T05:57:40.731Z,101402.27
2018-11-13T06:00:12.248Z,101408.27
2018-11-13T06:02:40.999Z,101410.41
2018-11-13T06:05:10.213Z,101427.17
2018-11-13T06:07:38.912Z,101440.52
2018-11-13T06:10:08.765Z,101437.94
2018-11-13T06:12:37.432Z,101444.83
2018-11-13T06:15:06.786Z,101447.41
2018-11-13T06:17:35.538Z,101448.69
2018-11-13T06:20:04.288Z,101455.14
2018-11-13T06:22:33.022Z,101464.15
2018-11-13T06:25:01.629Z,101471.03
2018-11-13T06:27:30.411Z,101470.17
2018-11-13T06:29:58.927Z,101481.36
2018-11-13T06:32:27.554Z,101471.50
2018-11-13T06:34:56.200Z,101465.47
2018-11-13T06:37:24.858Z,101471.51
2018-11-13T06:39:53.613Z,101472.78
2018-11-13T06:42:22.210Z,101466.77
2018-11-13T06:44:51.315Z,101463.77
2018-11-13T06:47:19.948Z,101466.75
2018-11-13T06:49:48.607Z,101464.63
2018-11-13T06:52:17.315Z,101465.06
2018-11-13T06:55:07.108Z,101468.05
2018-11-13T06:57:35.785Z,101467.20
2018-11-13T07:00:05.116Z,101474.09
2018-11-13T07:02:33.792Z,101474.95
2018-11-13T07:05:02.470Z,101481.38
2018-11-13T07:07:31.272Z,101477.52
2018-11-13T07:09:59.832Z,101480.09
2018-11-13T07:12:28.413Z,101477.96
2018-11-13T07:14:57.136Z,101486.97
2018-11-13T07:17:25.762Z,101489.11
2018-11-13T07:19:54.546Z,101491.70
2018-11-13T07:22:23.235Z,101499.87
2018-11-13T07:24:51.950Z,101497.29
2018-11-13T07:27:20.643Z,101506.75
2018-11-13T07:29:49.331Z,101497.72
2018-11-13T07:32:17.913Z,101501.59
2018-11-13T07:34:46.524Z,101500.73
2018-11-13T07:37:15.193Z,101491.72
2018-11-13T07:39:43.801Z,101498.17
2018-11-13T07:42:13.584Z,101486.12
2018-11-13T07:44:42.219Z,101497.73
2018-11-13T07:47:11.013Z,101502.45
2018-11-13T07:49:39.590Z,101511.05
2018-11-13T07:52:08.747Z,101519.24
2018-11-13T07:54:38.385Z,101527.83
2018-11-13T07:57:08.267Z,101534.70
2018-11-13T07:59:37.442Z,101534.73
2018-11-13T08:02:06.405Z,101545.04
2018-11-13T08:04:35.781Z,101551.49
2018-11-13T08:07:04.660Z,101555.36
2018-11-13T08:09:33.503Z,101535.59
2018-11-13T08:12:02.182Z,101530.86
2018-11-13T08:14:30.904Z,101521.37
2018-11-13T08:16:59.553Z,101538.14
2018-11-13T08:19:28.289Z,101533.44
2018-11-13T08:21:57.031Z,101536.02
2018-11-13T08:24:25.932Z,101528.69
2018-11-13T08:26:54.633Z,101534.72
2018-11-13T08:29:23.388Z,101538.17
2018-11-13T08:31:51.948Z,101529.55
2018-11-13T08:34:20.588Z,101537.29
2018-11-13T08:36:49.210Z,101535.58
2018-11-13T08:39:19.721Z,101534.72
2018-11-13T08:41:49.224Z,101527.82
2018-11-13T08:44:17.996Z,101535.15
2018-11-13T08:46:46.730Z,101528.69
2018-11-13T08:49:15.382Z,101536.42
2018-11-13T08:51:44.083Z,101536.42
2018-11-13T08:54:13.692Z,101536.42
2018-11-13T08:56:42.377Z,101534.71
2018-11-13T08:59:11.232Z,101531.27
2018-11-13T09:01:39.834Z,101533.42
2018-11-13T09:04:09.132Z,101535.16
2018-11-13T09:06:37.817Z,101536.88
2018-11-13T09:09:09.741Z,101532.56
2018-11-13T09:11:38.431Z,101537.73
2018-11-13T09:14:06.976Z,101537.72
2018-11-13T09:16:35.655Z,101545.45
2018-11-13T09:19:04.242Z,101550.62
2018-11-13T09:21:33.085Z,101560.09
2018-11-13T09:24:02.143Z,101555.36
2018-11-13T09:26:30.864Z,101550.19
2018-11-13T09:28:59.484Z,101542.84
2018-11-13T09:31:28.158Z,101553.61
2018-11-13T09:33:56.740Z,101548.02
2018-11-13T09:36:25.376Z,101545.02
2018-11-13T09:38:54.058Z,101547.17
2018-11-13T09:41:22.700Z,101544.16
2018-11-13T09:43:51.408Z,101549.30
2018-11-13T09:46:20.164Z,101548.84
2018-11-13T09:48:48.745Z,101563.05
2018-11-13T09:51:17.312Z,101563.05
2018-11-13T09:53:46.030Z,101557.03
2018-11-13T09:56:14.627Z,101570.38
2018-11-13T09:58:43.395Z,101563.50
2018-11-13T10:01:12.140Z,101573.80
2018-11-13T10:03:41.253Z,101581.12
2018-11-13T10:06:09.270Z,101563.44
2018-11-13T10:08:38.000Z,101576.80
2018-11-13T10:11:06.665Z,101578.09
2018-11-13T10:13:35.537Z,101571.63
2018-11-13T10:16:04.084Z,101579.38
2018-11-13T10:18:32.668Z,101592.72
2018-11-13T10:21:01.223Z,101580.67
2018-11-13T10:23:29.816Z,101579.34
2018-11-13T10:25:58.476Z,101581.94
2018-11-13T10:28:27.112Z,101593.17
2018-11-13T10:30:55.675Z,101598.75
2018-11-13T10:33:24.362Z,101606.94
2018-11-13T10:35:53.011Z,101600.90
2018-11-13T10:38:21.621Z,101600.05
2018-11-13T10:40:50.411Z,101615.14
2018-11-13T10:43:18.950Z,101619.04
2018-11-13T10:45:47.580Z,101614.72
2018-11-13T10:48:16.223Z,101616.02
2018-11-13T10:50:44.984Z,101614.73
2018-11-13T10:53:13.619Z,101611.70
2018-11-13T10:55:42.152Z,101613.02
2018-11-13T10:58:10.741Z,101615.16
2018-11-13T11:00:44.540Z,101619.03
2018-11-13T11:03:18.586Z,101613.45
2018-11-13T11:05:47.172Z,101614.73
2018-11-13T11:08:15.746Z,101620.34
2018-11-13T11:10:44.442Z,101615.16
2018-11-13T11:13:13.144Z,101619.48
2018-11-13T11:15:41.737Z,101638.00
2018-11-13T11:18:10.492Z,101654.34
2018-11-13T11:20:39.062Z,101634.11
2018-11-13T11:23:07.863Z,101628.96
2018-11-13T11:25:36.531Z,101635.83
2018-11-13T11:28:05.752Z,101628.10
2018-11-13T11:30:34.459Z,101623.79
2018-11-13T11:33:03.231Z,101620.33
2018-11-13T11:35:31.961Z,101622.91
2018-11-13T11:38:00.661Z,101619.05
2018-11-13T11:40:29.313Z,101617.72
2018-11-13T11:42:58.256Z,101608.66
2018-11-13T11:45:26.991Z,101612.52
2018-11-13T11:47:55.885Z,101614.68
2018-11-13T11:50:25.023Z,101597.41
2018-11-13T11:52:53.793Z,101611.59
2018-11-13T11:55:22.654Z,101607.23
2018-11-13T11:57:51.355Z,101608.92
2018-11-13T12:00:24.360Z,101611.94
2018-11-13T12:02:53.072Z,101618.36
2018-11-13T12:05:21.947Z,101618.79
2018-11-13T12:07:50.680Z,101617.06
2018-11-13T12:10:19.440Z,101627.50
2018-11-13T12:12:48.007Z,101631.85
2018-11-13T12:15:16.616Z,101628.45
2018-11-13T12:17:45.755Z,101630.59
2018-11-13T12:20:15.397Z,101649.10
2018-11-13T12:22:44.170Z,101636.23
2018-11-13T12:25:17.933Z,101642.27
2018-11-13T12:27:46.560Z,101643.56
2018-11-13T12:30:17.459Z,101650.89
2018-11-13T12:32:46.956Z,101657.34
2018-11-13T12:35:16.648Z,101653.03
2018-11-13T12:37:45.509Z,101658.20
2018-11-13T12:40:15.567Z,101649.16
2018-11-13T12:42:46.515Z,101647.45
2018-11-13T12:45:15.006Z,101648.31
2018-11-13T12:47:44.251Z,101652.18
2018-11-13T12:50:14.371Z,101643.98
2018-11-13T12:52:43.250Z,101648.30
2018-11-13T12:55:16.533Z,101647.44
2018-11-13T12:57:45.499Z,101647.86
2018-11-13T13:00:17.128Z,101642.27
2018-11-13T13:02:46.019Z,101632.82
2018-11-13T13:05:14.734Z,101641.42
2018-11-13T13:07:43.409Z,101632.36
2018-11-13T13:10:13.867Z,101628.05
2018-11-13T13:12:42.661Z,101636.25
2018-11-13T13:15:13.514Z,101628.53
2018-11-13T13:17:42.592Z,101637.55
2018-11-13T13:20:14.804Z,101641.44
2018-11-13T13:22:44.126Z,101653.50
2018-11-13T13:25:14.405Z,101656.50
2018-11-13T13:27:43.037Z,101650.47
2018-11-13T13:30:14.237Z,101658.66
2018-11-13T13:32:43.073Z,101669.83
2018-11-13T13:36:05.090Z,101677.55
2018-11-13T13:38:35.336Z,101677.11
2018-11-13T13:41:04.666Z,101695.97
2018-11-13T13:43:33.652Z,101692.41
2018-11-13T13:46:02.293Z,101689.72
2018-11-13T13:48:30.879Z,101702.92
2018-11-13T13:50:59.573Z,101704.20
2018-11-13T13:53:28.483Z,101706.74
2018-11-13T13:55:57.095Z,101709.33
2018-11-13T13:58:26.261Z,101712.77
2018-11-13T14:00:55.874Z,101721.36
2018-11-13T14:03:24.472Z,101724.78
2018-11-13T14:05:53.283Z,101724.79
2018-11-13T14:08:22.015Z,101729.03
2018-11-13T14:10:50.610Z,101728.60
2018-11-13T14:13:19.257Z,101739.80
2018-11-13T14:15:48.036Z,101741.95
2018-11-13T14:25:02.992Z,101755.72
2018-11-13T14:27:31.698Z,101755.80
2018-11-13T14:30:00.256Z,101761.31
2018-11-13T14:32:29.151Z,101765.63
2018-11-13T14:34:58.132Z,101772.02
2018-11-13T14:37:26.743Z,101774.17
2018-11-13T14:39:55.618Z,101775.47
2018-11-13T14:42:24.404Z,101770.73
2018-11-13T14:44:53.089Z,101781.50
2018-11-13T14:47:21.663Z,101781.08
2018-11-13T14:49:50.353Z,101791.41
2018-11-13T14:52:19.227Z,101788.02
2018-11-13T14:54:47.915Z,101789.25
2018-11-13T14:57:16.586Z,101794.37
2018-11-13T14:59:45.233Z,101800.34
2018-11-13T15:02:13.915Z,101809.36
2018-11-13T15:04:42.473Z,101813.20
2018-11-13T15:07:11.068Z,101813.58
2018-11-13T15:09:39.743Z,101823.96
2018-11-13T15:12:08.306Z,101831.64
2018-11-13T15:14:36.883Z,101839.81
2018-11-13T15:17:05.627Z,101844.58
2018-11-13T15:19:34.256Z,101841.51
2018-11-13T15:22:02.932Z,101842.77
2018-11-13T15:24:32.866Z,101850.97
2018-11-13T15:27:01.441Z,101854.39
2018-11-13T15:29:30.176Z,101850.50
2018-11-13T15:31:59.047Z,101852.19
2018-11-13T15:34:29.023Z,101861.63
2018-11-13T15:36:57.683Z,101857.77
2018-11-13T15:39:26.258Z,101852.08
2018-11-13T15:41:54.977Z,101858.13
2018-11-13T15:44:24.184Z,101861.09
2018-11-13T15:46:52.879Z,101870.56
2018-11-13T15:49:21.582Z,101873.92
2018-11-13T15:51:50.273Z,101876.08
2018-11-13T15:54:19.106Z,101878.98
2018-11-13T15:56:48.009Z,101883.75
2018-11-13T15:59:16.644Z,101884.20
2018-11-13T16:01:45.337Z,101892.31
2018-11-13T16:04:14.092Z,101895.37
2018-11-13T16:06:42.908Z,101904.77
2018-11-13T16:09:12.044Z,101900.91
2018-11-13T16:11:41.201Z,101911.27
2018-11-13T16:14:09.967Z,101912.95
2018-11-13T16:16:38.709Z,101923.16
2018-11-13T16:19:07.443Z,101923.12
2018-11-13T16:21:36.124Z,101926.57
2018-11-13T16:24:05.202Z,101923.16
2018-11-13T16:26:33.901Z,101921.84
2018-11-13T16:29:02.657Z,101925.70
2018-11-13T16:31:33.179Z,101932.14
2018-11-13T16:34:01.866Z,101935.64
2018-11-13T16:36:30.983Z,101939.48
2018-11-13T16:38:59.811Z,101949.78
2018-11-13T16:41:28.695Z,101946.72
2018-11-13T16:43:57.565Z,101957.95
2018-11-13T16:46:26.428Z,101962.69
2018-11-13T16:48:55.161Z,101961.82
2018-11-13T16:51:24.127Z,101961.82
2018-11-13T16:53:58.383Z,101960.98
2018-11-13T16:56:27.035Z,101961.44
2018-11-13T16:58:56.093Z,101969.20
2018-11-13T17:01:24.888Z,101964.36
2018-11-13T17:03:57.577Z,101976.02
2018-11-13T17:06:26.591Z,101964.84
2018-11-13T17:08:55.538Z,101965.17
2018-11-13T17:11:24.424Z,101974.59
2018-11-13T17:13:53.157Z,101980.16
2018-11-13T17:16:21.845Z,101979.81
2018-11-13T17:18:50.474Z,101984.97
2018-11-13T17:21:19.348Z,101984.06
2018-11-13T17:23:48.271Z,101986.25
2018-11-13T17:26:17.058Z,101981.97
2018-11-13T17:28:45.851Z,101988.38
2018-11-13T17:31:14.544Z,101993.95
2018-11-13T17:33:43.518Z,101989.22
2018-11-13T17:36:12.522Z,101992.17
2018-11-13T17:38:41.450Z,102002.92
2018-11-13T17:41:10.154Z,101993.56
2018-11-13T17:43:38.983Z,101995.75
2018-11-13T17:46:08.598Z,102003.06
2018-11-13T17:48:37.333Z,102003.90
2018-11-13T17:51:06.331Z,102012.91
2018-11-13T17:53:35.124Z,102013.78
2018-11-13T17:56:03.893Z,102015.53
2018-11-13T17:58:32.677Z,102011.17
2018-11-13T18:01:02.093Z,102018.83
2018-11-13T18:03:30.748Z,102018.80
2018-11-13T18:06:00.684Z,102022.66
2018-11-13T18:08:29.379Z,102023.08
2018-11-13T18:10:58.305Z,102025.61
2018-11-13T18:13:27.101Z,102022.17
2018-11-13T18:15:55.847Z,102023.34
2018-11-13T18:18:24.607Z,102023.72
2018-11-13T18:20:53.546Z,102027.93
2018-11-13T18:23:22.339Z,102030.61
2018-11-13T18:25:51.161Z,102026.22
2018-11-13T18:28:20.664Z,102023.66
2018-11-13T18:30:49.480Z,102026.68
2018-11-13T18:33:18.271Z,102031.48
2018-11-13T18:35:47.296Z,102033.64
2018-11-13T18:38:17.150Z,102031.06
2018-11-13T18:40:45.868Z,102026.83
2018-11-13T18:43:14.634Z,102031.06
2018-11-13T18:45:43.321Z,102030.16
2018-11-13T18:48:12.091Z,102036.11
2018-11-13T18:50:42.363Z,102030.92
2018-11-13T18:53:11.060Z,102037.31
2018-11-13T18:55:39.904Z,102037.81
2018-11-13T18:58:08.624Z,102042.55
2018-11-13T19:00:39.087Z,102043.07
2018-11-13T19:03:10.568Z,102040.45
2018-11-13T19:05:39.345Z,102048.52
2018-11-13T19:08:09.850Z,102048.03
2018-11-13T19:10:41.916Z,102047.99
2018-11-13T19:13:13.216Z,102053.63
2018-11-13T19:15:43.682Z,102068.59
2018-11-13T19:18:12.731Z,102069.49
2018-11-13T19:20:42.445Z,102074.15
2018-11-13T19:23:11.276Z,102071.70
2018-11-13T19:25:40.968Z,102060.98
2018-11-13T19:28:09.871Z,102071.73
2018-11-13T19:30:38.714Z,102074.72
2018-11-13T19:33:07.622Z,102085.86
2018-11-13T19:35:36.864Z,102081.13
2018-11-13T19:38:05.915Z,102089.72
2018-11-13T19:40:35.300Z,102089.75
2018-11-13T19:43:05.815Z,102098.84
2018-11-13T19:45:34.691Z,102094.97
2018-11-13T19:48:03.673Z,102101.83
2018-11-13T19:50:33.882Z,102106.98
2018-11-13T19:53:02.856Z,102103.53
2018-11-13T19:55:32.046Z,102110.73
2018-11-13T19:58:00.832Z,102118.41
2018-11-13T20:00:30.917Z,102116.62
2018-11-13T20:03:01.015Z,102121.36
2018-11-13T20:05:30.483Z,102125.71
2018-11-13T20:07:59.250Z,102134.77
2018-11-13T20:10:29.598Z,102132.93
2018-11-13T20:12:59.899Z,102132.89
2018-11-13T20:15:29.315Z,102141.41
2018-11-13T20:17:58.213Z,102142.27
2018-11-13T20:20:29.826Z,102142.97
2018-11-13T20:23:00.281Z,102148.56
2018-11-13T20:25:30.409Z,102139.98
2018-11-13T20:27:59.534Z,102145.17
2018-11-13T20:30:33.607Z,102147.66
2018-11-13T20:33:02.371Z,102148.02
2018-11-13T20:35:31.462Z,102149.72
2018-11-13T20:38:01.030Z,102147.61
2018-11-13T20:40:31.360Z,102151.01
2018-11-13T20:43:01.357Z,102152.71
2018-11-13T20:45:30.121Z,102158.11
2018-11-13T20:47:58.962Z,102159.41
2018-11-13T20:50:29.350Z,102160.70
2018-11-13T20:52:58.584Z,102163.31
2018-11-13T20:55:27.676Z,102168.45
2018-11-13T20:57:57.387Z,102156.83
2018-11-13T21:00:30.343Z,102160.73
2018-11-13T21:02:59.260Z,102165.79
2018-11-13T21:05:28.232Z,102158.48
2018-11-13T21:07:57.332Z,102168.36
2018-11-13T21:10:30.931Z,102175.61
2018-11-13T21:13:00.272Z,102169.24
2018-11-13T21:15:30.080Z,102172.64
2018-11-13T21:17:58.978Z,102184.62
2018-11-13T21:20:27.960Z,102185.45
2018-11-13T21:22:56.701Z,102186.33
2018-11-13T21:25:26.541Z,102184.47
2018-11-13T21:27:57.820Z,102185.75
2018-11-13T21:30:26.626Z,102193.05
2018-11-13T21:32:55.454Z,102190.48
2018-11-13T21:35:24.389Z,102198.36
2018-11-13T21:37:54.860Z,102196.16
2018-11-13T21:40:25.257Z,102197.39
2018-11-13T21:42:55.120Z,102202.84
2018-11-13T21:45:24.987Z,102192.96
2018-11-13T21:47:54.002Z,102200.33
2018-11-13T21:50:24.643Z,102212.36
2018-11-13T21:52:53.739Z,102205.57
2018-11-13T21:55:23.729Z,102211.48
2018-11-13T21:57:52.371Z,102215.34
2018-11-13T22:00:23.518Z,102211.95
2018-11-13T22:02:54.898Z,102218.02
2018-11-13T22:05:24.724Z,102215.75
2018-11-13T22:07:54.538Z,102216.99
2018-11-13T22:10:23.687Z,102222.14
2018-11-13T22:12:53.391Z,102221.37
2018-11-13T22:15:23.643Z,102223.00
2018-11-13T22:17:52.514Z,102224.28
2018-11-13T22:20:24.169Z,102229.27
2018-11-13T22:22:55.348Z,102234.78
2018-11-13T22:25:27.892Z,102233.14
2018-11-13T22:27:57.713Z,102235.70
2018-11-13T22:30:28.711Z,102237.00
2018-11-13T22:32:57.468Z,102235.64
2018-11-13T22:35:26.200Z,102234.27
2018-11-13T22:37:54.829Z,102237.96
2018-11-13T22:40:24.845Z,102239.34
2018-11-13T22:42:53.679Z,102238.05
2018-11-13T22:45:26.468Z,102243.68
2018-11-13T22:47:55.547Z,102239.87
2018-11-13T22:50:25.740Z,102242.48
2018-11-13T22:52:54.953Z,102244.66
2018-11-13T22:55:23.818Z,102245.02
2018-11-13T22:57:53.977Z,102244.55
2018-11-13T23:00:24.082Z,102248.00
2018-11-13T23:02:54.133Z,102257.50
2018-11-13T23:05:22.859Z,102251.90
2018-11-13T23:07:51.602Z,102253.20
2018-11-13T23:10:20.393Z,102256.22
2018-11-13T23:12:49.265Z,102257.56
2018-11-13T23:15:20.094Z,102259.22
2018-11-13T23:17:48.953Z,102263.48
2018-11-13T23:20:19.031Z,102268.62
2018-11-13T23:22:47.940Z,102265.23
2018-11-13T23:25:18.090Z,102268.62
2018-11-13T23:27:47.868Z,102260.80
2018-11-13T23:30:18.606Z,102266.70
2018-11-13T23:32:47.606Z,102265.89
2018-11-13T23:35:16.667Z,102265.94
2018-11-13T23:37:46.447Z,102266.30
2018-11-13T23:40:17.373Z,102273.13
2018-11-13T23:42:46.632Z,102273.19
2018-11-13T23:45:16.361Z,102282.08
2018-11-13T23:47:45.523Z,102282.73
2018-11-13T23:50:14.833Z,102287.80
2018-11-13T23:52:44.248Z,102288.14
2018-11-13T23:55:14.099Z,102292.08
2018-11-13T23:57:43.807Z,102294.56
